createdAt,value
2019-04-10T00:01:19.453Z,62.40
2019-04-10T00:03:28.595Z,63.20
2019-04-10T00:05:25.596Z,63.30
2019-04-10T00:07:29.282Z,63.10
2019-04-10T00:09:32.900Z,63.20
2019-04-10T00:11:36.680Z,63.50
2019-04-10T00:13:40.006Z,63.40
2019-04-10T00:15:43.455Z,63.40
2019-04-10T00:17:46.992Z,63.30
2019-04-10T00:19:51.834Z,63.80
2019-04-10T00:21:54.256Z,64.00
2019-04-10T00:23:57.837Z,64.00
2019-04-10T00:26:01.501Z,64.20
2019-04-10T00:28:05.306Z,63.50
2019-04-10T00:30:09.100Z,64.10
2019-04-10T00:32:11.955Z,64.50
2019-04-10T00:34:15.636Z,64.20
2019-04-10T00:36:18.833Z,63.70
2019-04-10T00:38:22.300Z,63.40
2019-04-10T00:40:25.747Z,63.40
2019-04-10T00:42:29.486Z,63.90
2019-04-10T00:44:32.611Z,63.90
2019-04-10T00:46:36.286Z,63.70
2019-04-10T00:48:40.223Z,64.40
2019-04-10T00:50:44.592Z,64.20
2019-04-10T00:52:48.086Z,64.80
2019-04-10T00:54:51.033Z,64.80
2019-04-10T00:56:54.364Z,64.50
2019-04-10T00:58:57.772Z,64.90
2019-04-10T01:01:01.338Z,65.20
2019-04-10T01:03:05.169Z,64.50
2019-04-10T01:05:09.026Z,65.00
2019-04-10T01:07:12.744Z,64.90
2019-04-10T01:09:15.450Z,65.20
2019-04-10T01:11:19.071Z,64.60
2019-04-10T01:13:23.003Z,65.00
2019-04-10T01:15:26.708Z,65.20
2019-04-10T01:17:31.130Z,65.50
2019-04-10T01:19:34.306Z,64.60
2019-04-10T01:21:37.055Z,64.90
2019-04-10T01:23:41.416Z,65.60
2019-04-10T01:25:44.100Z,65.30
2019-04-10T01:27:47.996Z,65.40
2019-04-10T01:29:51.556Z,66.10
2019-04-10T01:31:55.276Z,65.60
2019-04-10T01:33:58.176Z,65.90
2019-04-10T01:36:02.660Z,66.00
2019-04-10T01:38:06.480Z,66.00
2019-04-10T01:40:08.880Z,66.20
2019-04-10T01:42:12.523Z,66.70
2019-04-10T01:44:16.092Z,66.70
2019-04-10T01:46:20.185Z,66.60
2019-04-10T01:48:23.821Z,66.40
2019-04-10T01:50:28.414Z,66.00
2019-04-10T01:52:31.195Z,66.80
2019-04-10T01:54:35.338Z,67.50
2019-04-10T01:56:38.176Z,68.40
2019-04-10T01:58:41.944Z,67.70
2019-04-10T02:00:50.677Z,67.80
2019-04-10T02:02:53.975Z,69.20
2019-04-10T02:04:56.840Z,68.80
2019-04-10T02:07:00.259Z,68.50
2019-04-10T02:09:04.609Z,68.90
2019-04-10T02:11:08.886Z,69.40
2019-04-10T02:13:11.592Z,69.10
2019-04-10T02:15:15.879Z,70.20
2019-04-10T02:17:18.529Z,69.10
2019-04-10T02:19:22.006Z,69.70
2019-04-10T02:21:25.551Z,69.70
2019-04-10T02:23:28.908Z,70.60
2019-04-10T02:25:32.683Z,70.60
2019-04-10T02:27:36.035Z,70.70
2019-04-10T02:29:39.888Z,71.70
2019-04-10T02:31:44.210Z,71.50
2019-04-10T02:33:47.395Z,72.00
2019-04-10T02:35:50.859Z,71.90
2019-04-10T02:37:57.886Z,72.20
2019-04-10T02:40:02.358Z,72.40
2019-04-10T02:42:03.370Z,72.30
2019-04-10T02:44:07.928Z,73.10
2019-04-10T02:46:11.393Z,73.30
2019-04-10T02:48:15.020Z,72.90
2019-04-10T02:50:18.772Z,73.20
2019-04-10T02:52:22.638Z,73.50
2019-04-10T02:54:26.936Z,74.10
2019-04-10T02:56:32.634Z,73.10
2019-04-10T02:58:35.004Z,73.90
2019-04-10T03:00:38.608Z,74.10
2019-04-10T03:02:42.424Z,74.20
2019-04-10T03:04:46.589Z,74.30
2019-04-10T03:06:49.576Z,74.30
2019-04-10T03:09:07.946Z,74.80
2019-04-10T03:11:02.096Z,75.70
2019-04-10T03:13:00.744Z,75.20
2019-04-10T03:15:05.771Z,75.90
2019-04-10T03:17:08.073Z,75.00
2019-04-10T03:19:11.669Z,75.50
2019-04-10T03:21:15.358Z,75.10
2019-04-10T03:23:18.721Z,74.40
2019-04-10T03:25:22.256Z,75.10
2019-04-10T03:27:26.065Z,75.10
2019-04-10T03:29:29.624Z,74.90
2019-04-10T03:31:34.499Z,75.00
2019-04-10T03:33:50.499Z,76.00
2019-04-10T03:35:52.914Z,74.90
2019-04-10T03:37:57.376Z,75.00
2019-04-10T03:39:59.847Z,74.80
2019-04-10T03:42:04.301Z,74.90
2019-04-10T03:44:06.736Z,74.80
2019-04-10T03:46:10.934Z,74.80
2019-04-10T03:48:13.850Z,75.60
2019-04-10T03:50:17.075Z,74.80
2019-04-10T03:52:21.110Z,75.90
2019-04-10T03:54:23.973Z,75.20
2019-04-10T03:56:27.617Z,74.80
2019-04-10T03:58:31.520Z,75.20
2019-04-10T04:00:34.735Z,75.60
2019-04-10T04:02:38.183Z,75.80
2019-04-10T04:04:41.788Z,75.60
2019-04-10T04:06:45.988Z,75.90
2019-04-10T04:09:00.041Z,75.80
2019-04-10T04:10:53.064Z,75.70
2019-04-10T04:12:55.453Z,75.60
2019-04-10T04:14:59.158Z,75.90
2019-04-10T04:17:02.369Z,75.60
2019-04-10T04:19:05.955Z,75.90
2019-04-10T04:21:09.742Z,76.00
2019-04-10T04:23:13.772Z,75.90
2019-04-10T04:25:17.000Z,75.50
2019-04-10T04:27:20.043Z,75.70
2019-04-10T04:29:23.262Z,76.60
2019-04-10T04:31:27.075Z,76.60
2019-04-10T04:33:30.277Z,76.80
2019-04-10T04:35:34.630Z,76.60
2019-04-10T04:37:37.932Z,76.40
2019-04-10T04:39:40.604Z,76.90
2019-04-10T04:41:44.295Z,76.20
2019-04-10T04:43:48.692Z,76.40
2019-04-10T04:45:51.611Z,76.20
2019-04-10T04:47:55.553Z,76.40
2019-04-10T04:49:59.119Z,76.90
2019-04-10T04:52:02.517Z,77.50
2019-04-10T04:54:05.036Z,77.40
2019-04-10T04:56:09.485Z,77.10
2019-04-10T04:58:11.943Z,76.90
2019-04-10T05:00:15.579Z,76.40
2019-04-10T05:02:19.933Z,76.80
2019-04-10T05:04:22.927Z,76.90
2019-04-10T05:06:26.592Z,77.40
2019-04-10T05:08:30.249Z,77.80
2019-04-10T05:10:33.537Z,77.50
2019-04-10T05:12:36.332Z,77.30
2019-04-10T05:14:39.951Z,77.40
2019-04-10T05:16:43.682Z,77.90
2019-04-10T05:18:47.642Z,77.40
2019-04-10T05:20:50.946Z,77.40
2019-04-10T05:22:54.810Z,77.90
2019-04-10T05:24:57.009Z,78.20
2019-04-10T05:27:01.293Z,77.80
2019-04-10T05:29:04.706Z,77.90
2019-04-10T05:31:07.424Z,79.80
2019-04-10T05:33:11.979Z,78.40
2019-04-10T05:35:15.192Z,78.80
2019-04-10T05:37:17.808Z,78.90
2019-04-10T05:39:22.375Z,78.80
2019-04-10T05:41:25.858Z,78.80
2019-04-10T05:43:28.216Z,78.90
2019-04-10T05:45:31.892Z,79.00
2019-04-10T05:47:35.220Z,78.40
2019-04-10T05:49:39.319Z,78.60
2019-04-10T05:51:42.245Z,78.90
2019-04-10T05:53:45.631Z,79.60
2019-04-10T05:55:49.346Z,79.00
2019-04-10T05:57:53.178Z,80.30
2019-04-10T05:59:56.367Z,79.00
2019-04-10T06:02:01.013Z,78.80
2019-04-10T06:04:03.645Z,79.00
2019-04-10T06:06:08.288Z,78.00
2019-04-10T06:08:10.553Z,77.80
2019-04-10T06:10:14.058Z,78.60
2019-04-10T06:12:18.154Z,79.00
2019-04-10T06:14:22.067Z,78.50
2019-04-10T06:16:24.673Z,79.30
2019-04-10T06:18:29.009Z,78.50
2019-04-10T06:20:31.680Z,78.50
2019-04-10T06:22:35.097Z,78.60
2019-04-10T06:24:38.580Z,77.70
2019-04-10T06:26:42.040Z,77.10
2019-04-10T06:28:46.411Z,77.50
2019-04-10T06:30:48.912Z,77.80
2019-04-10T06:32:57.834Z,76.50
2019-04-10T06:35:01.947Z,78.00
2019-04-10T06:37:04.187Z,77.90
2019-04-10T06:39:08.778Z,78.20
2019-04-10T06:41:13.663Z,77.20
2019-04-10T06:43:14.987Z,77.70
2019-04-10T06:45:18.169Z,77.60
2019-04-10T06:47:22.297Z,77.60
2019-04-10T06:49:25.232Z,77.20
2019-04-10T06:51:29.316Z,78.40
2019-04-10T06:53:33.110Z,77.40
2019-04-10T06:55:36.497Z,79.30
2019-04-10T06:57:47.647Z,76.40
2019-04-10T06:59:43.227Z,77.40
2019-04-10T07:01:51.371Z,76.30
2019-04-10T07:03:59.203Z,77.20
2019-04-10T07:06:06.055Z,76.00
2019-04-10T07:08:07.412Z,76.40
2019-04-10T07:10:00.456Z,75.80
2019-04-10T07:12:04.739Z,74.70
2019-04-10T07:14:10.308Z,73.60
2019-04-10T07:16:11.330Z,74.60
2019-04-10T07:18:18.265Z,73.90
2019-04-10T07:20:19.373Z,74.80
2019-04-10T07:22:21.371Z,74.80
2019-04-10T07:24:25.034Z,73.00
2019-04-10T07:26:37.732Z,74.50
2019-04-10T07:28:31.876Z,74.30
2019-04-10T07:30:35.910Z,76.40
2019-04-10T07:32:42.492Z,74.90
2019-04-10T07:34:42.536Z,73.70
2019-04-10T07:36:46.863Z,74.60
2019-04-10T07:38:49.348Z,73.80
2019-04-10T07:40:52.804Z,74.30
2019-04-10T07:42:56.726Z,73.80
2019-04-10T07:45:00.036Z,74.60
2019-04-10T07:47:04.699Z,75.10
2019-04-10T07:49:06.973Z,74.40
2019-04-10T07:51:11.251Z,74.80
2019-04-10T07:53:14.775Z,74.00
2019-04-10T07:55:17.494Z,73.50
2019-04-10T07:57:20.893Z,74.00
2019-04-10T07:59:25.049Z,73.00
2019-04-10T08:01:27.784Z,73.30
2019-04-10T08:03:31.274Z,74.50
2019-04-10T08:05:35.427Z,74.10
2019-04-10T08:07:39.295Z,73.20
2019-04-10T08:09:43.026Z,74.80
2019-04-10T08:11:45.515Z,74.40
2019-04-10T08:13:49.249Z,73.60
2019-04-10T08:15:52.406Z,72.90
2019-04-10T08:17:56.161Z,72.80
2019-04-10T08:19:59.505Z,71.80
2019-04-10T08:22:03.667Z,74.00
2019-04-10T08:24:07.390Z,74.20
2019-04-10T08:26:10.070Z,74.00
2019-04-10T08:28:13.447Z,73.20
2019-04-10T08:30:17.437Z,72.40
2019-04-10T08:32:20.308Z,70.60
2019-04-10T08:34:23.821Z,73.90
2019-04-10T08:36:27.614Z,72.70
2019-04-10T08:38:30.725Z,71.00
2019-04-10T08:40:34.287Z,71.70
2019-04-10T08:42:37.635Z,71.90
2019-04-10T08:44:41.035Z,71.00
2019-04-10T08:46:44.520Z,70.70
2019-04-10T08:48:47.948Z,71.90
2019-04-10T08:50:52.399Z,71.90
2019-04-10T08:52:55.720Z,72.10
2019-04-10T08:54:59.516Z,71.70
2019-04-10T08:57:01.776Z,71.50
2019-04-10T08:59:05.554Z,71.90
2019-04-10T09:01:09.143Z,70.70
2019-04-10T09:03:12.913Z,72.10
2019-04-10T09:05:15.684Z,71.10
2019-04-10T09:07:19.984Z,70.70
2019-04-10T09:09:23.617Z,69.20
2019-04-10T09:11:29.455Z,68.90
2019-04-10T09:13:30.680Z,69.40
2019-04-10T09:15:34.114Z,70.20
2019-04-10T09:17:37.661Z,69.50
2019-04-10T09:19:42.310Z,69.80
2019-04-10T09:21:45.750Z,69.50
2019-04-10T09:23:52.809Z,70.30
2019-04-10T09:25:52.263Z,68.00
2019-04-10T09:27:55.615Z,68.80
2019-04-10T09:29:59.017Z,67.90
2019-04-10T09:32:02.415Z,69.90
2019-04-10T09:34:05.904Z,69.20
2019-04-10T09:36:09.375Z,66.20
2019-04-10T09:38:12.815Z,67.50
2019-04-10T09:40:16.387Z,67.30
2019-04-10T09:42:19.793Z,68.90
2019-04-10T09:44:23.240Z,66.70
2019-04-10T09:46:26.879Z,66.70
2019-04-10T09:48:31.666Z,65.30
2019-04-10T09:50:35.412Z,66.90
2019-04-10T09:52:38.228Z,66.40
2019-04-10T09:54:42.525Z,66.00
2019-04-10T09:56:45.161Z,66.40
2019-04-10T09:58:51.795Z,63.40
2019-04-10T10:00:54.482Z,63.50
2019-04-10T10:02:57.731Z,64.00
2019-04-10T10:05:02.269Z,65.20
2019-04-10T10:07:04.732Z,65.70
2019-04-10T10:09:08.416Z,64.70
2019-04-10T10:11:11.830Z,64.80
2019-04-10T10:13:15.237Z,64.10
2019-04-10T10:15:18.956Z,63.60
2019-04-10T10:17:22.403Z,63.10
2019-04-10T10:19:25.980Z,63.10
2019-04-10T10:21:29.267Z,61.30
2019-04-10T10:23:32.652Z,60.90
2019-04-10T10:25:36.104Z,62.20
2019-04-10T10:27:40.647Z,63.90
2019-04-10T10:29:44.102Z,62.70
2019-04-10T10:31:48.216Z,62.70
2019-04-10T10:33:50.144Z,61.70
2019-04-10T10:35:53.618Z,62.00
2019-04-10T10:37:56.915Z,62.10
2019-04-10T10:40:01.272Z,64.30
2019-04-10T10:42:03.786Z,62.60
2019-04-10T10:44:07.228Z,61.80
2019-04-10T10:46:11.416Z,60.00
2019-04-10T10:48:14.172Z,60.20
2019-04-10T10:50:17.596Z,60.20
2019-04-10T10:52:21.550Z,59.30
2019-04-10T10:54:25.044Z,58.50
2019-04-10T10:56:28.635Z,58.30
2019-04-10T10:58:32.163Z,58.00
2019-04-10T11:00:35.591Z,58.00
2019-04-10T11:02:38.315Z,57.80
2019-04-10T11:04:41.804Z,59.10
2019-04-10T11:06:55.208Z,58.40
2019-04-10T11:08:48.792Z,57.00
2019-04-10T11:10:55.772Z,57.60
2019-04-10T11:12:55.928Z,61.20
2019-04-10T11:14:59.469Z,60.10
2019-04-10T11:17:03.429Z,59.10
2019-04-10T11:19:06.791Z,60.20
2019-04-10T11:21:12.288Z,59.30
2019-04-10T11:23:13.429Z,59.30
2019-04-10T11:25:16.928Z,56.50
2019-04-10T11:27:20.394Z,56.50
2019-04-10T11:29:23.895Z,57.40
2019-04-10T11:31:27.485Z,58.40
2019-04-10T11:33:30.992Z,58.40
2019-04-10T11:35:34.912Z,57.40
2019-04-10T11:37:44.473Z,56.50
2019-04-10T11:39:43.960Z,59.80
2019-04-10T11:41:45.755Z,58.20
2019-04-10T11:43:50.157Z,57.10
2019-04-10T11:45:56.009Z,54.70
2019-04-10T11:47:56.531Z,56.90
2019-04-10T11:50:01.609Z,57.30
2019-04-10T11:52:04.009Z,57.80
2019-04-10T11:54:10.949Z,55.70
2019-04-10T11:56:11.456Z,54.20
2019-04-10T11:58:15.589Z,55.00
2019-04-10T12:00:20.500Z,53.70
2019-04-10T12:02:24.989Z,55.00
2019-04-10T12:04:29.030Z,52.50
2019-04-10T12:08:55.299Z,54.60
2019-04-10T12:12:39.948Z,55.50
2019-04-10T12:14:43.678Z,56.30
2019-04-10T12:16:47.405Z,54.60
2019-04-10T12:18:50.935Z,54.10
2019-04-10T12:20:53.811Z,53.00
2019-04-10T12:22:57.291Z,54.10
2019-04-10T12:25:00.770Z,54.70
2019-04-10T12:27:04.523Z,54.50
2019-04-10T12:29:08.664Z,53.80
2019-04-10T12:31:12.018Z,53.00
2019-04-10T12:33:14.749Z,51.90
2019-04-10T12:35:18.226Z,54.70
2019-04-10T12:37:21.680Z,54.70
2019-04-10T12:39:25.187Z,53.20
2019-04-10T12:41:28.669Z,52.40
2019-04-10T12:43:32.660Z,54.40
2019-04-10T12:45:36.054Z,53.30
2019-04-10T12:47:39.792Z,54.30
2019-04-10T12:49:43.552Z,52.50
2019-04-10T12:51:46.238Z,51.70
2019-04-10T12:53:49.895Z,51.50
2019-04-10T12:55:53.572Z,53.80
2019-04-10T12:58:06.623Z,52.90
2019-04-10T13:00:04.122Z,52.50
2019-04-10T13:02:04.870Z,52.00
2019-04-10T13:04:07.568Z,53.90
2019-04-10T13:06:10.847Z,54.30
2019-04-10T13:08:21.696Z,55.80
2019-04-10T13:10:18.648Z,55.00
2019-04-10T13:12:23.018Z,53.50
2019-04-10T13:14:26.479Z,54.20
2019-04-10T13:16:29.071Z,54.60
2019-04-10T13:18:32.526Z,50.50
2019-04-10T13:20:35.980Z,51.10
2019-04-10T13:22:40.178Z,50.50
2019-04-10T13:24:43.804Z,50.70
2019-04-10T13:26:46.895Z,51.60
2019-04-10T13:28:50.422Z,49.60
2019-04-10T13:30:55.567Z,51.70
2019-04-10T13:32:58.273Z,51.70
2019-04-10T13:35:01.805Z,50.30
2019-04-10T13:37:04.476Z,51.40
2019-04-10T13:39:08.762Z,52.70
2019-04-10T13:41:12.295Z,54.70
2019-04-10T13:43:15.990Z,53.00
2019-04-10T13:45:19.395Z,50.80
2019-04-10T13:47:22.144Z,49.30
2019-04-10T13:49:26.148Z,48.70
2019-04-10T13:51:29.643Z,52.50
2019-04-10T13:53:32.584Z,49.90
2019-04-10T13:55:36.721Z,49.70
2019-04-10T13:57:39.485Z,49.00
2019-04-10T13:59:42.892Z,52.10
2019-04-10T14:01:46.371Z,51.00
2019-04-10T14:03:50.367Z,48.10
2019-04-10T14:05:53.228Z,51.00
2019-04-10T14:07:57.647Z,50.00
2019-04-10T14:10:00.786Z,52.10
2019-04-10T14:12:04.063Z,50.60
2019-04-10T14:14:08.470Z,52.50
2019-04-10T14:16:10.784Z,47.30
2019-04-10T14:18:14.445Z,52.50
2019-04-10T14:20:17.816Z,48.00
2019-04-10T14:22:21.851Z,50.80
2019-04-10T14:24:24.956Z,48.40
2019-04-10T14:26:42.018Z,50.30
2019-04-10T14:28:36.100Z,49.10
2019-04-10T14:30:39.760Z,50.10
2019-04-10T14:32:43.225Z,49.50
2019-04-10T14:34:47.069Z,48.20
2019-04-10T14:36:50.230Z,48.50
2019-04-10T14:38:53.663Z,45.20
2019-04-10T14:40:57.749Z,45.80
2019-04-10T14:43:01.035Z,48.50
2019-04-10T14:45:05.632Z,44.90
2019-04-10T14:47:08.593Z,42.70
2019-04-10T14:49:12.945Z,46.20
2019-04-10T14:51:16.416Z,48.30
2019-04-10T14:53:19.311Z,43.00
2019-04-10T14:55:22.564Z,45.60
2019-04-10T14:57:26.607Z,43.40
2019-04-10T14:59:29.490Z,44.30
2019-04-10T15:01:33.639Z,42.20
2019-04-10T15:03:36.627Z,45.00
2019-04-10T15:05:49.675Z,44.80
2019-04-10T15:07:44.762Z,43.20
2019-04-10T15:09:47.076Z,45.50
2019-04-10T15:11:51.092Z,42.30
2019-04-10T15:13:55.070Z,39.50
2019-04-10T15:15:58.720Z,41.30
2019-04-10T15:18:02.489Z,43.10
2019-04-10T15:20:05.295Z,43.20
2019-04-10T15:22:09.534Z,41.30
2019-04-10T15:24:12.275Z,40.50
2019-04-10T15:26:15.721Z,41.60
2019-04-10T15:28:19.174Z,41.10
2019-04-10T15:30:22.655Z,42.40
2019-04-10T15:32:26.259Z,42.90
2019-04-10T15:34:30.208Z,42.60
2019-04-10T15:36:33.976Z,40.70
2019-04-10T15:38:37.916Z,39.60
2019-04-10T15:40:40.224Z,39.90
2019-04-10T15:42:44.036Z,42.50
2019-04-10T15:44:48.131Z,39.00
2019-04-10T15:46:51.297Z,40.60
2019-04-10T15:48:54.996Z,38.50
2019-04-10T15:50:58.041Z,35.80
2019-04-10T15:53:02.127Z,35.70
2019-04-10T15:55:05.671Z,36.10
2019-04-10T15:57:08.742Z,34.50
2019-04-10T15:59:12.166Z,35.60
2019-04-10T16:01:18.087Z,33.90
2019-04-10T16:03:21.805Z,35.10
2019-04-10T16:05:24.476Z,35.80
2019-04-10T16:07:28.831Z,35.30
2019-04-10T16:09:43.258Z,35.60
2019-04-10T16:11:46.300Z,34.70
2019-04-10T16:13:52.658Z,35.20
2019-04-10T16:15:55.690Z,35.20
2019-04-10T16:18:05.241Z,35.00
2019-04-10T16:20:13.388Z,33.60
2019-04-10T16:22:21.336Z,34.60
2019-04-10T16:24:24.922Z,34.20
2019-04-10T16:26:29.283Z,33.30
2019-04-10T16:28:31.945Z,35.40
2019-04-10T16:30:35.379Z,33.90
2019-04-10T16:32:39.688Z,34.20
2019-04-10T16:34:42.881Z,37.20
2019-04-10T16:36:45.870Z,34.10
2019-04-10T16:38:49.225Z,35.90
2019-04-10T16:40:52.649Z,33.70
2019-04-10T16:42:57.215Z,33.20
2019-04-10T16:44:59.771Z,33.80
2019-04-10T16:47:03.734Z,34.20
2019-04-10T16:49:06.736Z,35.80
2019-04-10T16:51:10.321Z,33.60
2019-04-10T16:53:13.880Z,33.90
2019-04-10T16:55:17.858Z,32.00
2019-04-10T16:57:20.831Z,32.30
2019-04-10T16:59:24.272Z,33.10
2019-04-10T17:01:28.843Z,32.90
2019-04-10T17:03:31.124Z,33.50
2019-04-10T17:05:35.211Z,34.40
2019-04-10T17:07:39.157Z,33.70
2019-04-10T17:09:43.748Z,34.10
2019-04-10T17:11:45.918Z,31.90
2019-04-10T17:13:49.428Z,33.90
2019-04-10T17:15:53.500Z,33.20
2019-04-10T17:17:56.911Z,34.70
2019-04-10T17:20:00.600Z,34.40
2019-04-10T17:22:04.686Z,34.40
2019-04-10T17:24:09.111Z,32.90
2019-04-10T17:26:11.399Z,33.80
2019-04-10T17:28:14.892Z,34.20
2019-04-10T17:30:18.360Z,34.40
2019-04-10T17:32:23.153Z,33.80
2019-04-10T17:34:26.723Z,33.50
2019-04-10T17:36:29.366Z,33.30
2019-04-10T17:38:34.726Z,33.80
2019-04-10T17:40:45.833Z,33.70
2019-04-10T17:42:41.022Z,35.80
2019-04-10T17:44:43.488Z,36.90
2019-04-10T17:46:47.073Z,37.00
2019-04-10T17:48:51.647Z,36.60
2019-04-10T17:50:55.193Z,37.20
2019-04-10T17:52:58.721Z,38.60
2019-04-10T17:55:01.024Z,38.40
2019-04-10T17:57:04.588Z,38.50
2019-04-10T17:59:07.925Z,39.30
2019-04-10T18:01:13.095Z,39.20
2019-04-10T18:03:18.549Z,39.90
2019-04-10T18:05:20.382Z,39.20
2019-04-10T18:07:23.894Z,40.00
2019-04-10T18:09:27.071Z,40.80
2019-04-10T18:11:30.529Z,41.30
2019-04-10T18:13:34.195Z,42.20
2019-04-10T18:15:37.885Z,41.10
2019-04-10T18:17:41.081Z,40.70
2019-04-10T18:19:44.528Z,41.40
2019-04-10T18:21:47.969Z,41.40
2019-04-10T18:23:51.526Z,42.00
2019-04-10T18:25:55.041Z,42.70
2019-04-10T18:27:58.391Z,42.70
2019-04-10T18:30:01.841Z,42.50
2019-04-10T18:32:05.566Z,42.40
2019-04-10T18:34:11.195Z,43.50
2019-04-10T18:36:13.336Z,43.90
2019-04-10T18:38:16.037Z,44.50
2019-04-10T18:40:19.487Z,44.60
2019-04-10T18:42:24.289Z,45.00
2019-04-10T18:44:26.392Z,45.20
2019-04-10T18:46:29.816Z,45.20
2019-04-10T18:48:33.273Z,46.30
2019-04-10T18:50:36.803Z,46.20
2019-04-10T18:52:40.282Z,45.90
2019-04-10T18:54:43.830Z,46.00
2019-04-10T18:56:47.300Z,47.00
2019-04-10T18:58:58.393Z,46.40
2019-04-10T19:01:13.904Z,46.90
2019-04-10T19:03:24.241Z,46.50
2019-04-10T19:05:31.891Z,46.60
2019-04-10T19:07:34.703Z,46.80
2019-04-10T19:09:38.943Z,47.60
2019-04-10T19:11:42.280Z,46.70
2019-04-10T19:13:46.695Z,46.80
2019-04-10T19:15:49.217Z,47.80
2019-04-10T19:17:52.704Z,47.20
2019-04-10T19:19:56.816Z,47.30
2019-04-10T19:22:00.037Z,47.60
2019-04-10T19:24:03.631Z,47.60
2019-04-10T19:26:09.513Z,47.70
2019-04-10T19:28:10.751Z,47.70
2019-04-10T19:30:45.977Z,47.70
2019-04-10T19:32:49.923Z,49.00
2019-04-10T19:34:52.885Z,48.70
2019-04-10T19:36:56.395Z,49.50
2019-04-10T19:39:00.008Z,49.00
2019-04-10T19:41:04.661Z,49.20
2019-04-10T19:43:08.163Z,49.80
2019-04-10T19:45:11.868Z,50.20
2019-04-10T19:47:14.559Z,50.20
2019-04-10T19:49:17.624Z,50.60
2019-04-10T19:51:21.815Z,50.70
2019-04-10T19:53:24.850Z,50.90
2019-04-10T19:55:28.098Z,50.90
2019-04-10T19:57:31.500Z,51.40
2019-04-10T19:59:35.690Z,50.60
2019-04-10T20:01:38.484Z,50.80
2019-04-10T20:03:41.955Z,51.10
2019-04-10T20:05:46.209Z,51.40
2019-04-10T20:07:49.248Z,51.40
2019-04-10T20:09:52.820Z,51.30
2019-04-10T20:11:58.859Z,50.80
2019-04-10T20:14:02.497Z,52.00
2019-04-10T20:16:06.915Z,52.10
2019-04-10T20:18:10.594Z,52.40
2019-04-10T20:20:13.184Z,52.10
2019-04-10T20:22:16.739Z,51.80
2019-04-10T20:24:20.792Z,52.50
2019-04-10T20:26:23.369Z,52.50
2019-04-10T20:28:26.870Z,53.30
2019-04-10T20:30:32.766Z,52.30
2019-04-10T20:32:36.330Z,52.70
2019-04-10T20:34:39.859Z,53.10
2019-04-10T20:36:42.139Z,52.70
2019-04-10T20:38:45.694Z,53.60
2019-04-10T20:40:49.827Z,53.60
2019-04-10T20:42:52.582Z,53.80
2019-04-10T20:44:56.755Z,53.70
2019-04-10T20:47:00.372Z,54.70
2019-04-10T20:49:03.043Z,54.30
2019-04-10T20:51:06.596Z,54.90
2019-04-10T20:53:10.013Z,55.00
2019-04-10T20:55:13.430Z,54.90
2019-04-10T20:57:16.867Z,54.10
2019-04-10T20:59:20.290Z,54.30
2019-04-10T21:01:24.507Z,54.30
2019-04-10T21:03:27.445Z,54.90
2019-04-10T21:05:31.680Z,55.20
2019-04-10T21:07:35.252Z,55.70
2019-04-10T21:09:37.764Z,55.40
2019-04-10T21:11:41.834Z,55.10
2019-04-10T21:13:44.702Z,55.60
2019-04-10T21:15:48.536Z,55.80
2019-04-10T21:17:52.782Z,55.70
2019-04-10T21:19:55.957Z,55.80
2019-04-10T21:21:59.548Z,55.70
2019-04-10T21:24:03.123Z,56.60
2019-04-10T21:26:06.739Z,56.30
2019-04-10T21:28:10.184Z,55.90
2019-04-10T21:30:22.092Z,56.60
2019-04-10T21:32:36.482Z,56.60
2019-04-10T21:34:42.729Z,55.80
2019-04-10T21:36:45.588Z,56.50
2019-04-10T21:38:50.547Z,56.20
2019-04-10T21:40:52.428Z,57.00
2019-04-10T21:42:56.102Z,56.80
2019-04-10T21:44:59.673Z,57.20
2019-04-10T21:47:03.447Z,56.60
2019-04-10T21:49:06.308Z,57.40
2019-04-10T21:51:10.863Z,57.10
2019-04-10T21:53:14.176Z,57.70
2019-04-10T21:55:17.087Z,57.90
2019-04-10T21:57:20.346Z,57.00
2019-04-10T21:59:24.687Z,57.70
2019-04-10T22:01:28.323Z,57.30
2019-04-10T22:03:31.601Z,57.50
2019-04-10T22:05:34.868Z,57.60
2019-04-10T22:07:50.628Z,57.40
2019-04-10T22:09:59.461Z,57.40
2019-04-10T22:12:07.810Z,57.30
2019-04-10T22:14:10.999Z,57.80
2019-04-10T22:16:18.128Z,57.50
2019-04-10T22:18:21.777Z,57.20
2019-04-10T22:20:25.673Z,57.30
2019-04-10T22:22:28.847Z,57.10
2019-04-10T22:24:32.276Z,57.10
2019-04-10T22:26:36.233Z,57.50
2019-04-10T22:28:39.699Z,57.80
2019-04-10T22:30:43.764Z,57.40
2019-04-10T22:32:47.151Z,57.20
2019-04-10T22:37:00.237Z,58.00
2019-04-10T22:39:04.733Z,57.90
2019-04-10T22:41:19.803Z,58.30
2019-04-10T22:43:11.697Z,58.70
2019-04-10T22:45:20.024Z,58.30
2019-04-10T22:47:23.534Z,58.50
2019-04-10T22:49:26.988Z,59.00
2019-04-10T22:51:30.436Z,59.00
2019-04-10T22:53:34.219Z,59.00
2019-04-10T22:55:37.405Z,58.90
2019-04-10T22:57:41.586Z,59.10
2019-04-10T22:59:44.642Z,59.50
2019-04-10T23:01:59.430Z,59.20
2019-04-10T23:03:51.434Z,59.30
2019-04-10T23:05:54.856Z,59.40
2019-04-10T23:07:59.052Z,59.40
2019-04-10T23:10:02.600Z,59.80
2019-04-10T23:12:06.207Z,59.80
2019-04-10T23:14:10.240Z,60.20
2019-04-10T23:16:14.486Z,60.30
2019-04-10T23:18:17.115Z,60.40
2019-04-10T23:20:20.065Z,60.70
2019-04-10T23:22:23.492Z,60.60
2019-04-10T23:24:27.704Z,60.40
2019-04-10T23:26:31.210Z,60.80
2019-04-10T23:28:33.915Z,61.10
2019-04-10T23:30:37.655Z,61.60
2019-04-10T23:32:41.587Z,61.80
2019-04-10T23:34:45.128Z,61.40
2019-04-10T23:36:48.649Z,62.10
2019-04-10T23:38:52.119Z,63.10
2019-04-10T23:40:54.970Z,63.60
2019-04-10T23:43:07.823Z,64.30
2019-04-10T23:45:01.828Z,64.60
2019-04-10T23:47:05.264Z,65.60
2019-04-10T23:49:09.002Z,65.40
2019-04-10T23:51:12.679Z,66.10
2019-04-10T23:53:16.162Z,65.30
2019-04-10T23:55:19.196Z,65.60
2019-04-10T23:57:22.659Z,66.00
2019-04-10T23:59:26.717Z,66.30
